createdAt,value
2024-04-12T00:02:22.517Z,13.85
2024-04-12T00:04:54.302Z,13.81
2024-04-12T00:07:23.496Z,14.01
2024-04-12T00:09:55.244Z,13.81
2024-04-12T00:12:28.803Z,13.93
2024-04-12T00:15:02.543Z,13.81
2024-04-12T00:17:32.744Z,13.87
2024-04-12T00:20:02.067Z,13.87
2024-04-12T00:22:31.588Z,13.95
2024-04-12T00:25:01.760Z,13.91
2024-04-12T00:27:35.029Z,13.93
2024-04-12T00:30:04.773Z,13.89
2024-04-12T00:32:36.840Z,13.70
2024-04-12T00:35:04.832Z,13.92
2024-04-12T00:37:34.570Z,13.96
2024-04-12T00:40:01.910Z,13.96
2024-04-12T00:42:34.874Z,13.96
2024-04-12T00:45:05.119Z,13.95
2024-04-12T00:47:35.961Z,13.99
2024-04-12T00:50:06.041Z,13.88
2024-04-12T00:52:38.621Z,13.90
2024-04-12T00:55:11.254Z,13.95
2024-04-12T00:57:40.939Z,14.01
2024-04-12T01:00:14.053Z,14.07
2024-04-12T01:02:43.821Z,14.01
2024-04-12T01:05:19.644Z,14.08
2024-04-12T01:07:52.279Z,14.30
2024-04-12T01:10:27.183Z,14.24
2024-04-12T01:12:57.898Z,14.16
2024-04-12T01:15:34.020Z,14.08
2024-04-12T01:18:06.756Z,14.15
2024-04-12T01:20:36.999Z,14.12
2024-04-12T01:23:06.226Z,14.19
2024-04-12T01:25:35.571Z,13.93
2024-04-12T01:28:04.933Z,14.28
2024-04-12T01:30:32.755Z,14.23
2024-04-12T01:33:00.801Z,14.02
2024-04-12T01:35:28.470Z,14.06
2024-04-12T01:37:58.933Z,14.10
2024-04-12T01:40:27.320Z,13.95
2024-04-12T01:42:55.101Z,14.04
2024-04-12T01:45:28.901Z,14.10
2024-04-12T01:47:57.647Z,14.23
2024-04-12T01:50:25.144Z,14.23
2024-04-12T01:52:56.935Z,14.26
2024-04-12T01:55:28.729Z,14.13
2024-04-12T01:57:59.852Z,14.09
2024-04-12T02:00:29.024Z,14.18
2024-04-12T02:03:01.197Z,14.14
2024-04-12T02:05:35.707Z,14.18
2024-04-12T02:08:09.058Z,14.05
2024-04-12T02:10:43.596Z,14.26
2024-04-12T02:13:24.671Z,14.06
2024-04-12T02:15:56.545Z,14.25
2024-04-12T02:18:25.437Z,14.25
2024-04-12T02:20:54.764Z,14.34
2024-04-12T02:23:23.497Z,14.23
2024-04-12T02:25:52.080Z,14.10
2024-04-12T02:28:20.020Z,14.17
2024-04-12T02:30:58.955Z,14.13
2024-04-12T02:33:33.209Z,13.97
2024-04-12T02:36:16.135Z,14.05
2024-04-12T02:38:45.469Z,14.14
2024-04-12T02:41:15.361Z,14.29
2024-04-12T02:43:43.868Z,14.13
2024-04-12T02:46:12.214Z,14.12
2024-04-12T02:48:48.504Z,14.07
2024-04-12T02:51:19.258Z,14.08
2024-04-12T02:53:49.796Z,14.22
2024-04-12T02:56:19.065Z,14.15
2024-04-12T02:58:48.296Z,14.16
2024-04-12T03:01:26.474Z,14.17
2024-04-12T03:03:56.881Z,14.21
2024-04-12T03:06:33.043Z,14.14
2024-04-12T03:09:02.074Z,14.00
2024-04-12T03:11:38.749Z,14.20
2024-04-12T03:14:11.906Z,14.18
2024-04-12T03:16:43.919Z,14.09
2024-04-12T03:19:16.856Z,14.12
2024-04-12T03:21:44.837Z,14.14
2024-04-12T03:24:12.904Z,14.02
2024-04-12T03:26:44.564Z,13.99
2024-04-12T03:29:13.328Z,13.80
2024-04-12T03:31:40.961Z,13.91
2024-04-12T03:34:09.824Z,13.88
2024-04-12T03:36:38.355Z,13.77
2024-04-12T03:39:20.310Z,13.91
2024-04-12T03:41:52.265Z,13.95
2024-04-12T03:44:20.427Z,13.87
2024-04-12T03:46:51.727Z,13.91
2024-04-12T03:49:23.171Z,13.98
2024-04-12T03:51:55.728Z,13.92
2024-04-12T03:54:24.393Z,14.02
2024-04-12T03:56:53.231Z,14.05
2024-04-12T03:59:25.648Z,14.10
2024-04-12T04:01:55.838Z,14.13
2024-04-12T04:04:29.343Z,14.07
2024-04-12T04:06:59.126Z,14.10
2024-04-12T04:09:27.605Z,14.15
2024-04-12T04:11:56.234Z,14.05
2024-04-12T04:14:28.573Z,14.18
2024-04-12T04:16:57.351Z,14.12
2024-04-12T04:19:32.697Z,14.26
2024-04-12T04:22:21.667Z,14.20
2024-04-12T04:24:49.104Z,14.06
2024-04-12T04:27:17.046Z,14.24
2024-04-12T04:29:45.406Z,14.25
2024-04-12T04:32:12.690Z,14.21
2024-04-12T04:34:45.575Z,14.22
2024-04-12T04:37:22.457Z,14.07
2024-04-12T04:39:50.482Z,14.26
2024-04-12T04:42:18.256Z,14.23
2024-04-12T04:44:46.378Z,14.00
2024-04-12T04:47:16.033Z,14.05
2024-04-12T04:49:44.029Z,14.13
2024-04-12T04:52:12.032Z,14.22
2024-04-12T04:54:41.129Z,14.28
2024-04-12T04:57:08.555Z,14.07
2024-04-12T04:59:36.934Z,14.12
2024-04-12T05:02:04.274Z,14.19
2024-04-12T05:04:35.337Z,14.17
2024-04-12T05:07:02.554Z,14.18
2024-04-12T05:09:29.745Z,14.21
2024-04-12T05:11:59.607Z,14.14
2024-04-12T05:14:37.581Z,14.29
2024-04-12T05:17:16.459Z,14.25
2024-04-12T05:19:45.033Z,14.22
2024-04-12T05:22:13.152Z,14.11
2024-04-12T05:24:41.802Z,14.29
2024-04-12T05:27:13.313Z,14.27
2024-04-12T05:29:42.422Z,14.32
2024-04-12T05:32:11.598Z,14.18
2024-04-12T05:34:39.003Z,14.37
2024-04-12T05:37:06.277Z,14.29
2024-04-12T05:39:37.793Z,14.38
2024-04-12T05:42:08.857Z,14.36
2024-04-12T05:44:37.070Z,14.37
2024-04-12T05:47:08.602Z,14.48
2024-04-12T05:49:36.192Z,14.72
2024-04-12T05:52:04.312Z,14.61
2024-04-12T05:54:41.330Z,14.61
2024-04-12T05:57:09.090Z,14.79
2024-04-12T05:59:38.785Z,14.94
2024-04-12T06:02:07.371Z,15.02
2024-04-12T06:04:37.509Z,14.82
2024-04-12T06:07:12.930Z,14.96
2024-04-12T06:09:40.307Z,15.02
2024-04-12T06:12:08.588Z,14.97
2024-04-12T06:14:47.331Z,14.99
2024-04-12T06:17:16.518Z,14.88
2024-04-12T06:19:43.999Z,14.75
2024-04-12T06:22:17.005Z,14.83
2024-04-12T06:24:50.403Z,14.87
2024-04-12T06:27:30.823Z,14.96
2024-04-12T06:30:01.793Z,15.01
2024-04-12T06:32:29.432Z,15.06
2024-04-12T06:34:57.232Z,15.06
2024-04-12T06:37:24.437Z,15.23
2024-04-12T06:39:57.215Z,15.06
2024-04-12T06:42:24.472Z,15.23
2024-04-12T06:44:51.907Z,15.31
2024-04-12T06:47:20.923Z,15.24
2024-04-12T06:49:48.259Z,15.55
2024-04-12T06:52:24.745Z,15.67
2024-04-12T06:54:53.499Z,15.81
2024-04-12T06:57:26.673Z,15.80
2024-04-12T07:00:02.634Z,15.54
2024-04-12T07:02:31.884Z,15.59
2024-04-12T07:05:00.943Z,15.43
2024-04-12T07:07:30.292Z,15.54
2024-04-12T07:10:03.561Z,15.55
2024-04-12T07:12:33.959Z,15.68
2024-04-12T07:15:01.814Z,16.54
2024-04-12T07:17:30.590Z,16.98
2024-04-12T07:20:01.704Z,16.93
2024-04-12T07:22:29.241Z,16.98
2024-04-12T07:24:58.421Z,17.59
2024-04-12T07:27:29.336Z,17.73
2024-04-12T07:29:59.448Z,17.55
2024-04-12T07:32:36.363Z,17.33
2024-04-12T07:35:24.489Z,17.00
2024-04-12T07:37:59.431Z,16.76
2024-04-12T07:40:36.943Z,16.91
2024-04-12T07:43:15.550Z,16.66
2024-04-12T07:45:45.427Z,16.54
2024-04-12T07:48:21.683Z,16.31
2024-04-12T07:50:55.824Z,16.43
2024-04-12T07:53:27.277Z,16.41
2024-04-12T07:56:14.649Z,16.46
2024-04-12T07:58:43.971Z,17.15
2024-04-12T08:01:27.361Z,17.56
2024-04-12T08:03:58.587Z,17.76
2024-04-12T08:06:56.896Z,17.95
2024-04-12T08:09:43.931Z,17.81
2024-04-12T08:12:25.200Z,17.30
2024-04-12T08:14:57.423Z,17.46
2024-04-12T08:17:26.380Z,17.92
2024-04-12T08:19:58.508Z,18.47
2024-04-12T08:22:34.697Z,18.66
2024-04-12T08:25:03.895Z,18.30
2024-04-12T08:27:32.902Z,18.99
2024-04-12T08:30:00.403Z,19.18
2024-04-12T08:32:33.372Z,20.08
2024-04-12T08:35:08.275Z,19.11
2024-04-12T08:37:39.940Z,19.19
2024-04-12T08:40:11.329Z,19.23
2024-04-12T08:42:39.404Z,19.44
2024-04-12T08:45:15.105Z,18.95
2024-04-12T08:48:04.078Z,19.53
2024-04-12T08:50:37.048Z,19.80
2024-04-12T08:53:13.450Z,20.70
2024-04-12T08:55:44.726Z,20.63
2024-04-12T08:58:12.515Z,20.47
2024-04-12T09:00:41.388Z,19.73
2024-04-12T09:03:26.758Z,19.85
2024-04-12T09:05:55.068Z,19.79
2024-04-12T09:08:23.897Z,20.14
2024-04-12T09:10:54.742Z,19.88
2024-04-12T09:13:22.857Z,19.66
2024-04-12T09:15:51.874Z,18.81
2024-04-12T09:18:28.674Z,18.72
2024-04-12T09:21:04.185Z,19.45
2024-04-12T09:23:37.502Z,19.29
2024-04-12T09:26:24.238Z,20.36
2024-04-12T09:28:57.683Z,20.12
2024-04-12T09:31:46.194Z,19.21
2024-04-12T09:34:24.432Z,19.24
2024-04-12T09:37:03.188Z,20.17
2024-04-12T09:39:58.634Z,19.78
2024-04-12T09:42:49.111Z,20.16
2024-04-12T09:45:24.251Z,19.84
2024-04-12T09:48:11.596Z,20.37
2024-04-12T09:50:59.830Z,19.93
2024-04-12T09:53:46.101Z,19.06
2024-04-12T09:56:36.708Z,19.15
2024-04-12T09:59:34.392Z,19.25
2024-04-12T10:02:20.395Z,19.08
2024-04-12T10:05:09.062Z,19.63
2024-04-12T10:07:56.322Z,19.89
2024-04-12T10:10:43.735Z,20.24
2024-04-12T10:13:51.972Z,20.39
2024-04-12T10:16:40.808Z,20.61
2024-04-12T10:19:30.677Z,20.78
2024-04-12T10:22:27.781Z,20.84
2024-04-12T10:25:14.083Z,20.29
2024-04-12T10:28:08.846Z,20.24
2024-04-12T10:31:04.845Z,20.17
2024-04-12T10:34:04.612Z,20.98
2024-04-12T10:36:51.084Z,21.19
2024-04-12T10:39:19.124Z,21.61
2024-04-12T10:41:47.182Z,21.81
2024-04-12T10:44:14.780Z,21.55
2024-04-12T10:46:42.922Z,20.76
2024-04-12T10:49:11.143Z,20.49
2024-04-12T10:51:43.094Z,20.66
2024-04-12T10:54:25.078Z,20.74
2024-04-12T10:56:57.740Z,20.35
2024-04-12T10:59:31.720Z,20.75
2024-04-12T11:02:01.503Z,20.55
2024-04-12T11:04:52.428Z,20.28
2024-04-12T11:07:23.148Z,20.43
2024-04-12T11:10:01.542Z,20.53
2024-04-12T11:12:41.546Z,20.60
2024-04-12T11:15:25.046Z,20.97
2024-04-12T11:18:12.078Z,21.00
2024-04-12T11:21:24.443Z,21.05
2024-04-12T11:24:20.766Z,20.76
2024-04-12T11:27:07.168Z,20.25
2024-04-12T11:29:58.124Z,19.74
2024-04-12T11:32:25.391Z,20.03
2024-04-12T11:34:53.295Z,19.54
2024-04-12T11:37:25.443Z,19.80
2024-04-12T11:39:54.435Z,20.01
2024-04-12T11:42:21.758Z,20.17
2024-04-12T11:44:49.815Z,20.11
2024-04-12T11:47:18.359Z,19.95
2024-04-12T11:49:50.897Z,19.63
2024-04-12T11:52:19.099Z,19.09
2024-04-12T11:54:52.670Z,19.11
2024-04-12T11:57:23.924Z,19.16
2024-04-12T12:00:02.310Z,19.02
2024-04-12T12:02:30.467Z,18.98
2024-04-12T12:04:58.870Z,18.49
2024-04-12T12:07:29.327Z,18.67
2024-04-12T12:09:56.800Z,19.30
2024-04-12T12:12:28.114Z,19.40
2024-04-12T12:14:55.892Z,19.81
2024-04-12T12:17:23.664Z,19.52
2024-04-12T12:19:54.169Z,19.53
2024-04-12T12:22:22.959Z,19.42
2024-04-12T12:24:50.505Z,19.23
2024-04-12T12:27:23.264Z,19.10
2024-04-12T12:29:52.925Z,19.12
2024-04-12T12:32:20.488Z,18.92
2024-04-12T12:34:48.528Z,18.94
2024-04-12T12:37:16.988Z,18.95
2024-04-12T12:39:44.890Z,18.85
2024-04-12T12:42:13.830Z,18.29
2024-04-12T12:44:41.113Z,18.61
2024-04-12T12:47:08.368Z,18.45
2024-04-12T12:49:48.034Z,18.12
2024-04-12T12:52:15.886Z,18.67
2024-04-12T12:54:44.723Z,18.18
2024-04-12T12:57:13.545Z,18.55
2024-04-12T12:59:44.513Z,18.82
2024-04-12T13:02:16.584Z,18.76
2024-04-12T13:04:45.174Z,18.40
2024-04-12T13:07:17.009Z,18.74
2024-04-12T13:09:44.501Z,19.09
2024-04-12T13:12:11.914Z,18.64
2024-04-12T13:14:41.269Z,18.89
2024-04-12T13:17:15.653Z,19.19
2024-04-12T13:19:43.672Z,18.76
2024-04-12T13:22:14.396Z,18.85
2024-04-12T13:24:49.641Z,18.78
2024-04-12T13:27:16.963Z,18.94
2024-04-12T13:29:44.281Z,19.02
2024-04-12T13:32:12.659Z,19.12
2024-04-12T13:34:39.983Z,19.38
2024-04-12T13:37:11.044Z,18.99
2024-04-12T13:39:38.256Z,18.60
2024-04-12T13:42:12.329Z,18.31
2024-04-12T13:44:59.256Z,18.69
2024-04-12T13:47:46.195Z,19.01
2024-04-12T13:50:32.262Z,19.05
2024-04-12T13:53:01.093Z,18.84
2024-04-12T13:55:29.687Z,19.13
2024-04-12T13:57:56.966Z,18.95
2024-04-12T14:00:33.532Z,18.84
2024-04-12T14:03:07.626Z,19.22
2024-04-12T14:05:36.681Z,19.22
2024-04-12T14:08:11.518Z,19.40
2024-04-12T14:10:39.724Z,19.41
2024-04-12T14:13:07.562Z,19.28
2024-04-12T14:15:39.175Z,18.89
2024-04-12T14:18:09.285Z,18.89
2024-04-12T14:20:36.726Z,18.69
2024-04-12T14:23:04.083Z,18.46
2024-04-12T14:25:31.484Z,18.73
2024-04-12T14:27:59.650Z,18.89
2024-04-12T14:30:26.983Z,18.86
2024-04-12T14:32:54.658Z,18.96
2024-04-12T14:35:23.911Z,19.07
2024-04-12T14:37:51.781Z,18.99
2024-04-12T14:40:23.538Z,18.65
2024-04-12T14:42:53.933Z,18.70
2024-04-12T14:45:23.084Z,18.30
2024-04-12T14:47:58.879Z,18.48
2024-04-12T14:50:34.390Z,18.52
2024-04-12T14:53:04.142Z,18.73
2024-04-12T14:55:32.017Z,18.55
2024-04-12T14:57:59.702Z,18.30
2024-04-12T15:00:27.838Z,18.16
2024-04-12T15:02:57.223Z,18.13
2024-04-12T15:05:44.852Z,18.20
2024-04-12T15:08:35.217Z,18.07
2024-04-12T15:11:22.954Z,18.03
2024-04-12T15:14:09.999Z,18.24
2024-04-12T15:16:56.063Z,18.10
2024-04-12T15:19:41.997Z,18.10
2024-04-12T15:22:27.877Z,17.90
2024-04-12T15:25:13.930Z,17.75
2024-04-12T15:27:59.868Z,17.82
2024-04-12T15:30:45.642Z,17.93
2024-04-12T15:33:31.756Z,17.91
2024-04-12T15:36:17.980Z,17.81
2024-04-12T15:39:04.144Z,17.92
2024-04-12T15:41:50.488Z,17.78
2024-04-12T15:44:36.478Z,17.41
2024-04-12T15:47:06.227Z,17.68
2024-04-12T15:49:49.744Z,17.66
2024-04-12T15:52:20.398Z,17.89
2024-04-12T15:54:59.255Z,17.75
2024-04-12T15:57:45.222Z,17.47
2024-04-12T16:00:31.871Z,17.51
2024-04-12T16:03:18.044Z,17.59
2024-04-12T16:06:04.273Z,17.54
2024-04-12T16:08:50.534Z,17.14
2024-04-12T16:11:17.898Z,17.22
2024-04-12T16:13:45.328Z,17.35
2024-04-12T16:16:12.853Z,17.48
2024-04-12T16:18:40.279Z,17.51
2024-04-12T16:21:07.577Z,17.33
2024-04-12T16:23:34.831Z,17.36
2024-04-12T16:26:04.929Z,17.30
2024-04-12T16:28:34.893Z,16.93
2024-04-12T16:31:06.850Z,17.02
2024-04-12T16:33:35.426Z,17.07
2024-04-12T16:36:03.431Z,17.07
2024-04-12T16:38:30.703Z,17.10
2024-04-12T16:40:57.980Z,17.27
2024-04-12T16:43:25.148Z,17.16
2024-04-12T16:45:52.498Z,17.11
2024-04-12T16:48:19.885Z,17.17
2024-04-12T16:50:47.371Z,17.08
2024-04-12T16:53:14.597Z,16.96
2024-04-12T16:55:41.824Z,17.09
2024-04-12T16:58:10.591Z,16.84
2024-04-12T17:00:39.680Z,16.73
2024-04-12T17:03:10.199Z,16.92
2024-04-12T17:05:37.743Z,16.89
2024-04-12T17:08:05.483Z,16.97
2024-04-12T17:10:33.133Z,16.96
2024-04-12T17:13:00.536Z,17.04
2024-04-12T17:15:29.021Z,16.75
2024-04-12T17:17:56.544Z,16.80
2024-04-12T17:20:23.961Z,16.83
2024-04-12T17:22:53.700Z,16.91
2024-04-12T17:25:21.006Z,16.81
2024-04-12T17:27:53.160Z,16.59
2024-04-12T17:30:20.917Z,16.41
2024-04-12T17:32:48.365Z,16.57
2024-04-12T17:35:16.207Z,16.63
2024-04-12T17:37:46.385Z,16.56
2024-04-12T17:40:16.040Z,16.76
2024-04-12T17:42:43.375Z,16.74
2024-04-12T17:45:10.710Z,16.62
2024-04-12T17:47:37.971Z,16.58
2024-04-12T17:50:07.136Z,16.65
2024-04-12T17:52:34.533Z,16.66
2024-04-12T17:55:02.852Z,16.48
2024-04-12T17:57:30.904Z,16.43
2024-04-12T17:59:58.342Z,16.37
2024-04-12T18:02:26.722Z,16.47
2024-04-12T18:04:54.201Z,16.43
2024-04-12T18:07:21.498Z,16.27
2024-04-12T18:09:48.733Z,16.19
2024-04-12T18:12:15.999Z,16.19
2024-04-12T18:14:43.624Z,16.40
2024-04-12T18:17:10.903Z,16.31
2024-04-12T18:19:44.065Z,16.31
2024-04-12T18:22:11.256Z,16.20
2024-04-12T18:24:38.425Z,16.18
2024-04-12T18:27:07.703Z,16.16
2024-04-12T18:29:35.108Z,16.16
2024-04-12T18:32:05.694Z,16.05
2024-04-12T18:34:33.777Z,16.19
2024-04-12T18:37:33.684Z,16.14
2024-04-12T18:40:19.899Z,16.26
2024-04-12T18:43:07.163Z,16.20
2024-04-12T18:45:34.370Z,16.18
2024-04-12T18:48:02.162Z,16.23
2024-04-12T18:50:29.742Z,16.28
2024-04-12T18:52:57.140Z,16.20
2024-04-12T18:55:25.934Z,16.14
2024-04-12T18:57:53.202Z,16.18
2024-04-12T19:00:21.164Z,16.19
2024-04-12T19:02:49.437Z,16.18
2024-04-12T19:05:17.286Z,16.26
2024-04-12T19:07:44.772Z,15.93
2024-04-12T19:10:12.056Z,16.21
2024-04-12T19:12:39.476Z,16.32
2024-04-12T19:15:08.964Z,16.11
2024-04-12T19:17:36.277Z,16.32
2024-04-12T19:20:03.990Z,16.21
2024-04-12T19:22:31.185Z,16.21
2024-04-12T19:24:58.387Z,16.33
2024-04-12T19:27:26.072Z,16.27
2024-04-12T19:29:53.396Z,16.32
2024-04-12T19:32:20.691Z,16.38
2024-04-12T19:34:47.925Z,16.21
2024-04-12T19:37:15.348Z,16.24
2024-04-12T19:39:42.826Z,16.11
2024-04-12T19:42:10.095Z,15.95
2024-04-12T19:44:38.239Z,16.11
2024-04-12T19:47:06.758Z,16.05
2024-04-12T19:49:37.002Z,16.19
2024-04-12T19:52:04.866Z,16.10
2024-04-12T19:54:32.226Z,16.22
2024-04-12T19:57:00.443Z,16.25
2024-04-12T19:59:27.817Z,16.20
2024-04-12T20:01:55.120Z,15.99
2024-04-12T20:04:22.450Z,16.17
2024-04-12T20:06:51.435Z,16.03
2024-04-12T20:09:19.093Z,16.19
2024-04-12T20:11:46.365Z,16.19
2024-04-12T20:14:13.629Z,16.11
2024-04-12T20:16:41.255Z,16.29
2024-04-12T20:19:10.742Z,16.14
2024-04-12T20:21:38.520Z,16.28
2024-04-12T20:24:06.497Z,16.23
2024-04-12T20:26:38.574Z,16.12
2024-04-12T20:29:15.067Z,16.13
2024-04-12T20:31:44.269Z,16.14
2024-04-12T20:34:15.141Z,16.11
2024-04-12T20:36:43.997Z,16.07
2024-04-12T20:39:22.249Z,16.15
2024-04-12T20:41:51.189Z,16.11
2024-04-12T20:44:24.607Z,16.04
2024-04-12T20:46:53.543Z,15.92
2024-04-12T20:49:20.999Z,16.01
2024-04-12T20:51:50.139Z,15.99
2024-04-12T20:54:17.672Z,16.01
2024-04-12T20:56:46.211Z,16.05
2024-04-12T20:59:13.685Z,15.83
2024-04-12T21:01:48.375Z,15.99
2024-04-12T21:04:17.175Z,16.02
2024-04-12T21:06:45.510Z,16.01
2024-04-12T21:09:17.395Z,15.98
2024-04-12T21:11:46.379Z,16.10
2024-04-12T21:14:14.034Z,15.97
2024-04-12T21:16:44.867Z,15.86
2024-04-12T21:19:13.477Z,15.91
2024-04-12T21:21:40.937Z,15.57
2024-04-12T21:24:08.848Z,15.94
2024-04-12T21:26:36.282Z,15.89
2024-04-12T21:29:03.711Z,15.83
2024-04-12T21:31:30.915Z,15.79
2024-04-12T21:33:58.135Z,15.87
2024-04-12T21:36:26.234Z,15.82
2024-04-12T21:38:56.617Z,15.80
2024-04-12T21:41:24.310Z,15.86
2024-04-12T21:43:53.294Z,16.04
2024-04-12T21:46:23.616Z,16.01
2024-04-12T21:48:52.365Z,16.03
2024-04-12T21:51:25.370Z,15.92
2024-04-12T21:53:53.951Z,15.97
2024-04-12T21:56:21.726Z,16.05
2024-04-12T21:58:52.835Z,15.98
2024-04-12T22:01:21.106Z,15.99
2024-04-12T22:03:49.258Z,16.06
2024-04-12T22:06:16.913Z,16.06
2024-04-12T22:08:44.410Z,15.99
2024-04-12T22:11:11.802Z,16.05
2024-04-12T22:13:39.542Z,16.09
2024-04-12T22:16:13.873Z,16.04
2024-04-12T22:18:41.956Z,16.07
2024-04-12T22:21:21.472Z,16.00
2024-04-12T22:23:49.697Z,16.10
2024-04-12T22:26:23.162Z,16.03
2024-04-12T22:28:51.375Z,16.05
2024-04-12T22:31:23.434Z,16.12
2024-04-12T22:33:53.011Z,15.81
2024-04-12T22:36:22.247Z,15.83
2024-04-12T22:38:50.620Z,15.97
2024-04-12T22:41:18.406Z,16.01
2024-04-12T22:43:46.197Z,15.84
2024-04-12T22:46:15.461Z,15.92
2024-04-12T22:48:44.610Z,15.94
2024-04-12T22:51:23.801Z,15.89
2024-04-12T22:53:51.079Z,15.79
2024-04-12T22:56:18.294Z,15.90
2024-04-12T22:58:45.500Z,15.94
2024-04-12T23:01:12.750Z,15.85
2024-04-12T23:03:39.979Z,15.82
2024-04-12T23:06:08.628Z,15.80
2024-04-12T23:08:35.903Z,15.76
2024-04-12T23:11:03.135Z,15.61
2024-04-12T23:13:30.381Z,15.62
2024-04-12T23:15:57.589Z,15.64
2024-04-12T23:18:24.814Z,15.55
2024-04-12T23:20:55.394Z,15.65
2024-04-12T23:23:22.598Z,15.70
2024-04-12T23:25:49.820Z,15.61
2024-04-12T23:28:17.018Z,15.44
2024-04-12T23:30:44.189Z,15.68
2024-04-12T23:33:11.434Z,15.60
2024-04-12T23:35:38.797Z,15.66
2024-04-12T23:38:05.973Z,15.60
2024-04-12T23:40:33.163Z,15.64
2024-04-12T23:43:01.750Z,15.58
2024-04-12T23:45:29.133Z,15.41
2024-04-12T23:47:57.234Z,15.26
2024-04-12T23:50:27.398Z,15.24
2024-04-12T23:52:54.804Z,15.24
2024-04-12T23:55:22.026Z,15.47
2024-04-12T23:57:52.016Z,15.43
